Terminal Aerodrome Forecast
Issued by NWS

Home | Current Version | Previous Version | Text Only | Print | Product List | Glossary On
Versions: 1 2 3 4 5 6 7 8 9 10 11 12 13 14 15
000
FTUS46 KSTO 270000 CCA
TAFSMF
TAF COR
KSMF 270002Z 2700/2724 33008KT P6SM SCT250
     FM270900 VRB05KT P6SM SCT060 BKN120
     FM271800 19012KT P6SM BKN040 BKN080 PROB30 2720/2724 19015G25KT
      -SHRA BKN025=

USA.gov is the U.S. government's official web portal to all federal, state and local government web resources and services.